sensor_id;sensor_type;location;lat;lon;timestamp;P1;durP1;ratioP1;P2;durP2;ratioP2
40511;SDS011;26213;52.446;20.706;2023-01-04T00:01:33;11.90;;;6.22;;
40511;SDS011;26213;52.446;20.706;2023-01-04T00:03:59;15.27;;;7.15;;
40511;SDS011;26213;52.446;20.706;2023-01-04T00:06:25;15.40;;;7.25;;
40511;SDS011;26213;52.446;20.706;2023-01-04T00:08:50;14.23;;;7.28;;
40511;SDS011;26213;52.446;20.706;2023-01-04T00:11:18;14.35;;;7.00;;
40511;SDS011;26213;52.446;20.706;2023-01-04T00:13:45;18.98;;;8.23;;
40511;SDS011;26213;52.446;20.706;2023-01-04T00:16:16;15.57;;;6.78;;
40511;SDS011;26213;52.446;20.706;2023-01-04T00:18:44;15.98;;;6.75;;
40511;SDS011;26213;52.446;20.706;2023-01-04T00:21:10;14.80;;;6.93;;
40511;SDS011;26213;52.446;20.706;2023-01-04T00:23:40;22.83;;;8.82;;
40511;SDS011;26213;52.446;20.706;2023-01-04T00:26:16;22.65;;;9.75;;
40511;SDS011;26213;52.446;20.706;2023-01-04T00:28:45;21.98;;;8.73;;
40511;SDS011;26213;52.446;20.706;2023-01-04T00:31:20;19.70;;;9.40;;
40511;SDS011;26213;52.446;20.706;2023-01-04T00:33:46;17.02;;;8.82;;
40511;SDS011;26213;52.446;20.706;2023-01-04T00:36:13;21.27;;;9.32;;
40511;SDS011;26213;52.446;20.706;2023-01-04T00:38:39;25.10;;;10.93;;
40511;SDS011;26213;52.446;20.706;2023-01-04T00:41:11;26.83;;;10.60;;
40511;SDS011;26213;52.446;20.706;2023-01-04T00:43:37;22.73;;;9.55;;
40511;SDS011;26213;52.446;20.706;2023-01-04T00:46:02;24.92;;;10.30;;
40511;SDS011;26213;52.446;20.706;2023-01-04T00:48:29;26.02;;;10.10;;
40511;SDS011;26213;52.446;20.706;2023-01-04T00:50:55;25.52;;;11.75;;
40511;SDS011;26213;52.446;20.706;2023-01-04T00:53:21;28.90;;;12.20;;
40511;SDS011;26213;52.446;20.706;2023-01-04T00:55:46;18.67;;;9.35;;
40511;SDS011;26213;52.446;20.706;2023-01-04T00:58:12;24.08;;;11.02;;
40511;SDS011;26213;52.446;20.706;2023-01-04T01:00:37;22.92;;;9.85;;
40511;SDS011;26213;52.446;20.706;2023-01-04T01:03:03;25.55;;;10.98;;
40511;SDS011;26213;52.446;20.706;2023-01-04T01:05:29;24.67;;;12.15;;
40511;SDS011;26213;52.446;20.706;2023-01-04T01:07:55;25.38;;;10.82;;
40511;SDS011;26213;52.446;20.706;2023-01-04T01:10:20;27.50;;;12.23;;
40511;SDS011;26213;52.446;20.706;2023-01-04T01:12:46;27.48;;;12.18;;
40511;SDS011;26213;52.446;20.706;2023-01-04T01:15:11;25.05;;;9.82;;
40511;SDS011;26213;52.446;20.706;2023-01-04T01:17:37;27.00;;;11.38;;
40511;SDS011;26213;52.446;20.706;2023-01-04T01:20:03;23.75;;;11.40;;
40511;SDS011;26213;52.446;20.706;2023-01-04T01:22:30;24.00;;;11.35;;
40511;SDS011;26213;52.446;20.706;2023-01-04T01:24:56;19.33;;;11.45;;
40511;SDS011;26213;52.446;20.706;2023-01-04T01:27:21;26.30;;;12.10;;
40511;SDS011;26213;52.446;20.706;2023-01-04T01:29:47;33.05;;;12.40;;
40511;SDS011;26213;52.446;20.706;2023-01-04T01:32:12;23.45;;;12.10;;
40511;SDS011;26213;52.446;20.706;2023-01-04T01:34:38;21.92;;;12.07;;
40511;SDS011;26213;52.446;20.706;2023-01-04T01:37:03;23.00;;;11.93;;
40511;SDS011;26213;52.446;20.706;2023-01-04T01:39:29;27.42;;;12.48;;
40511;SDS011;26213;52.446;20.706;2023-01-04T01:41:54;26.05;;;12.23;;
40511;SDS011;26213;52.446;20.706;2023-01-04T01:47:10;28.35;;;13.05;;
40511;SDS011;26213;52.446;20.706;2023-01-04T01:49:37;24.67;;;12.30;;
40511;SDS011;26213;52.446;20.706;2023-01-04T01:52:05;24.75;;;12.57;;
40511;SDS011;26213;52.446;20.706;2023-01-04T01:54:39;26.95;;;12.68;;
40511;SDS011;26213;52.446;20.706;2023-01-04T01:57:07;28.85;;;13.57;;
40511;SDS011;26213;52.446;20.706;2023-01-04T01:59:35;26.33;;;12.68;;
40511;SDS011;26213;52.446;20.706;2023-01-04T02:02:03;23.75;;;12.77;;
40511;SDS011;26213;52.446;20.706;2023-01-04T02:04:28;24.95;;;10.80;;
40511;SDS011;26213;52.446;20.706;2023-01-04T02:06:55;20.33;;;12.57;;
40511;SDS011;26213;52.446;20.706;2023-01-04T02:09:21;25.35;;;11.80;;
40511;SDS011;26213;52.446;20.706;2023-01-04T02:11:47;27.75;;;14.13;;
40511;SDS011;26213;52.446;20.706;2023-01-04T02:14:12;24.50;;;13.73;;
40511;SDS011;26213;52.446;20.706;2023-01-04T02:19:52;28.50;;;13.65;;
40511;SDS011;26213;52.446;20.706;2023-01-04T02:22:35;25.50;;;13.23;;
40511;SDS011;26213;52.446;20.706;2023-01-04T02:25:41;26.58;;;13.48;;
40511;SDS011;26213;52.446;20.706;2023-01-04T02:36:32;23.17;;;14.07;;
40511;SDS011;26213;52.446;20.706;2023-01-04T02:39:04;30.75;;;16.10;;
40511;SDS011;26213;52.446;20.706;2023-01-04T02:41:51;29.88;;;15.70;;
40511;SDS011;26213;52.446;20.706;2023-01-04T02:50:16;29.33;;;16.08;;
40511;SDS011;26213;52.446;20.706;2023-01-04T02:52:59;27.10;;;14.32;;
40511;SDS011;26213;52.446;20.706;2023-01-04T02:58:12;31.23;;;15.48;;
40511;SDS011;26213;52.446;20.706;2023-01-04T03:07:32;33.45;;;16.27;;
40511;SDS011;26213;52.446;20.706;2023-01-04T03:10:09;35.13;;;16.10;;
40511;SDS011;26213;52.446;20.706;2023-01-04T03:12:42;35.15;;;20.02;;
40511;SDS011;26213;52.446;20.706;2023-01-04T03:15:12;41.78;;;23.45;;
40511;SDS011;26213;52.446;20.706;2023-01-04T03:20:38;34.20;;;18.70;;
40511;SDS011;26213;52.446;20.706;2023-01-04T03:23:09;31.73;;;17.67;;
40511;SDS011;26213;52.446;20.706;2023-01-04T03:25:57;35.78;;;17.90;;
40511;SDS011;26213;52.446;20.706;2023-01-04T03:28:42;38.70;;;19.23;;
40511;SDS011;26213;52.446;20.706;2023-01-04T03:32:01;31.38;;;20.33;;
40511;SDS011;26213;52.446;20.706;2023-01-04T03:34:50;35.08;;;18.02;;
40511;SDS011;26213;52.446;20.706;2023-01-04T03:40:22;34.78;;;17.67;;
40511;SDS011;26213;52.446;20.706;2023-01-04T03:43:19;32.33;;;19.30;;
40511;SDS011;26213;52.446;20.706;2023-01-04T03:51:42;41.53;;;19.42;;
40511;SDS011;26213;52.446;20.706;2023-01-04T03:54:19;36.17;;;18.85;;
40511;SDS011;26213;52.446;20.706;2023-01-04T03:56:49;36.80;;;19.23;;
40511;SDS011;26213;52.446;20.706;2023-01-04T03:59:15;36.58;;;18.42;;
40511;SDS011;26213;52.446;20.706;2023-01-04T04:01:41;33.50;;;18.60;;
40511;SDS011;26213;52.446;20.706;2023-01-04T04:04:07;34.60;;;18.83;;
40511;SDS011;26213;52.446;20.706;2023-01-04T04:06:52;29.98;;;17.70;;
40511;SDS011;26213;52.446;20.706;2023-01-04T04:09:36;33.17;;;16.85;;
40511;SDS011;26213;52.446;20.706;2023-01-04T04:12:01;35.58;;;18.23;;
40511;SDS011;26213;52.446;20.706;2023-01-04T04:14:27;30.23;;;17.65;;
40511;SDS011;26213;52.446;20.706;2023-01-04T04:16:52;32.50;;;17.10;;
40511;SDS011;26213;52.446;20.706;2023-01-04T04:19:18;39.38;;;18.02;;
40511;SDS011;26213;52.446;20.706;2023-01-04T04:21:44;36.33;;;17.63;;
40511;SDS011;26213;52.446;20.706;2023-01-04T04:24:16;33.05;;;16.55;;
40511;SDS011;26213;52.446;20.706;2023-01-04T04:26:43;36.25;;;19.90;;
40511;SDS011;26213;52.446;20.706;2023-01-04T04:29:08;43.65;;;23.73;;
40511;SDS011;26213;52.446;20.706;2023-01-04T04:31:34;31.70;;;18.73;;
40511;SDS011;26213;52.446;20.706;2023-01-04T04:33:59;34.67;;;18.40;;
40511;SDS011;26213;52.446;20.706;2023-01-04T04:36:25;33.10;;;18.15;;
40511;SDS011;26213;52.446;20.706;2023-01-04T04:38:50;37.58;;;19.10;;
40511;SDS011;26213;52.446;20.706;2023-01-04T04:41:16;36.63;;;21.33;;
40511;SDS011;26213;52.446;20.706;2023-01-04T04:44:00;37.20;;;19.90;;
40511;SDS011;26213;52.446;20.706;2023-01-04T04:46:25;43.38;;;22.42;;
40511;SDS011;26213;52.446;20.706;2023-01-04T04:48:51;39.28;;;20.10;;
40511;SDS011;26213;52.446;20.706;2023-01-04T04:51:16;34.30;;;20.20;;
40511;SDS011;26213;52.446;20.706;2023-01-04T04:53:42;33.92;;;21.73;;
40511;SDS011;26213;52.446;20.706;2023-01-04T04:56:08;36.35;;;18.42;;
40511;SDS011;26213;52.446;20.706;2023-01-04T04:58:34;33.83;;;18.15;;
40511;SDS011;26213;52.446;20.706;2023-01-04T05:01:00;32.00;;;20.23;;
40511;SDS011;26213;52.446;20.706;2023-01-04T05:03:25;36.63;;;19.58;;
40511;SDS011;26213;52.446;20.706;2023-01-04T05:05:51;38.47;;;20.13;;
40511;SDS011;26213;52.446;20.706;2023-01-04T05:08:16;35.55;;;18.63;;
40511;SDS011;26213;52.446;20.706;2023-01-04T05:10:41;35.47;;;20.13;;
40511;SDS011;26213;52.446;20.706;2023-01-04T05:13:08;34.28;;;18.77;;
40511;SDS011;26213;52.446;20.706;2023-01-04T05:15:38;33.65;;;18.20;;
40511;SDS011;26213;52.446;20.706;2023-01-04T05:18:05;31.40;;;19.10;;
40511;SDS011;26213;52.446;20.706;2023-01-04T05:20:32;36.63;;;21.33;;
40511;SDS011;26213;52.446;20.706;2023-01-04T05:22:58;43.75;;;27.23;;
40511;SDS011;26213;52.446;20.706;2023-01-04T05:25:24;42.58;;;25.13;;
40511;SDS011;26213;52.446;20.706;2023-01-04T05:27:49;33.75;;;19.65;;
40511;SDS011;26213;52.446;20.706;2023-01-04T05:30:15;35.55;;;19.63;;
40511;SDS011;26213;52.446;20.706;2023-01-04T05:33:00;35.13;;;20.20;;
40511;SDS011;26213;52.446;20.706;2023-01-04T05:35:26;37.08;;;19.48;;
40511;SDS011;26213;52.446;20.706;2023-01-04T05:37:52;28.38;;;16.42;;
40511;SDS011;26213;52.446;20.706;2023-01-04T05:40:18;29.90;;;16.27;;
40511;SDS011;26213;52.446;20.706;2023-01-04T05:42:44;29.23;;;17.08;;
40511;SDS011;26213;52.446;20.706;2023-01-04T05:45:09;35.25;;;20.58;;
40511;SDS011;26213;52.446;20.706;2023-01-04T05:47:35;35.30;;;20.40;;
40511;SDS011;26213;52.446;20.706;2023-01-04T05:50:01;29.65;;;17.80;;
40511;SDS011;26213;52.446;20.706;2023-01-04T05:52:28;28.85;;;16.85;;
40511;SDS011;26213;52.446;20.706;2023-01-04T05:54:53;33.00;;;17.48;;
40511;SDS011;26213;52.446;20.706;2023-01-04T05:57:19;30.67;;;16.45;;
40511;SDS011;26213;52.446;20.706;2023-01-04T05:59:44;36.65;;;16.65;;
40511;SDS011;26213;52.446;20.706;2023-01-04T06:02:20;34.33;;;18.90;;
40511;SDS011;26213;52.446;20.706;2023-01-04T06:04:47;30.67;;;16.67;;
40511;SDS011;26213;52.446;20.706;2023-01-04T06:07:12;32.58;;;17.25;;
40511;SDS011;26213;52.446;20.706;2023-01-04T06:09:38;36.72;;;18.50;;
40511;SDS011;26213;52.446;20.706;2023-01-04T06:12:04;43.08;;;22.70;;
40511;SDS011;26213;52.446;20.706;2023-01-04T06:14:29;46.10;;;22.42;;
40511;SDS011;26213;52.446;20.706;2023-01-04T06:16:55;60.10;;;28.45;;
40511;SDS011;26213;52.446;20.706;2023-01-04T06:19:21;61.90;;;28.17;;
40511;SDS011;26213;52.446;20.706;2023-01-04T06:21:46;68.18;;;31.30;;
40511;SDS011;26213;52.446;20.706;2023-01-04T06:24:12;54.88;;;25.67;;
40511;SDS011;26213;52.446;20.706;2023-01-04T06:26:37;48.50;;;24.17;;
40511;SDS011;26213;52.446;20.706;2023-01-04T06:29:03;46.55;;;22.00;;
40511;SDS011;26213;52.446;20.706;2023-01-04T06:31:28;43.97;;;20.83;;
40511;SDS011;26213;52.446;20.706;2023-01-04T06:33:54;45.10;;;23.35;;
40511;SDS011;26213;52.446;20.706;2023-01-04T06:36:20;46.45;;;22.55;;
40511;SDS011;26213;52.446;20.706;2023-01-04T06:38:46;93.25;;;45.33;;
40511;SDS011;26213;52.446;20.706;2023-01-04T06:41:12;84.28;;;40.40;;
40511;SDS011;26213;52.446;20.706;2023-01-04T06:43:37;69.88;;;32.88;;
40511;SDS011;26213;52.446;20.706;2023-01-04T06:46:03;63.88;;;31.15;;
40511;SDS011;26213;52.446;20.706;2023-01-04T06:48:28;49.03;;;25.13;;
40511;SDS011;26213;52.446;20.706;2023-01-04T06:50:54;43.78;;;24.23;;
40511;SDS011;26213;52.446;20.706;2023-01-04T06:53:19;34.85;;;18.98;;
40511;SDS011;26213;52.446;20.706;2023-01-04T06:55:45;34.33;;;18.15;;
40511;SDS011;26213;52.446;20.706;2023-01-04T06:58:11;32.78;;;17.10;;
40511;SDS011;26213;52.446;20.706;2023-01-04T07:00:36;34.35;;;19.92;;
40511;SDS011;26213;52.446;20.706;2023-01-04T07:03:02;35.80;;;19.92;;
40511;SDS011;26213;52.446;20.706;2023-01-04T07:05:28;34.85;;;20.60;;
40511;SDS011;26213;52.446;20.706;2023-01-04T07:07:53;33.83;;;18.52;;
40511;SDS011;26213;52.446;20.706;2023-01-04T07:10:19;34.85;;;17.92;;
40511;SDS011;26213;52.446;20.706;2023-01-04T07:12:44;40.58;;;19.08;;
40511;SDS011;26213;52.446;20.706;2023-01-04T07:15:10;45.03;;;21.17;;
40511;SDS011;26213;52.446;20.706;2023-01-04T07:17:35;48.20;;;23.63;;
40511;SDS011;26213;52.446;20.706;2023-01-04T07:20:01;80.47;;;38.78;;
40511;SDS011;26213;52.446;20.706;2023-01-04T07:22:28;49.60;;;25.75;;
40511;SDS011;26213;52.446;20.706;2023-01-04T07:24:53;45.83;;;24.10;;
40511;SDS011;26213;52.446;20.706;2023-01-04T07:27:19;52.47;;;26.27;;
40511;SDS011;26213;52.446;20.706;2023-01-04T07:29:44;48.53;;;24.08;;
40511;SDS011;26213;52.446;20.706;2023-01-04T07:32:10;66.32;;;35.83;;
40511;SDS011;26213;52.446;20.706;2023-01-04T07:34:36;59.30;;;31.23;;
40511;SDS011;26213;52.446;20.706;2023-01-04T07:37:02;49.53;;;24.23;;
40511;SDS011;26213;52.446;20.706;2023-01-04T07:39:28;37.55;;;20.95;;
40511;SDS011;26213;52.446;20.706;2023-01-04T07:41:54;44.35;;;21.15;;
40511;SDS011;26213;52.446;20.706;2023-01-04T07:44:19;35.35;;;19.27;;
40511;SDS011;26213;52.446;20.706;2023-01-04T07:46:50;43.95;;;18.88;;
40511;SDS011;26213;52.446;20.706;2023-01-04T07:49:16;45.70;;;24.27;;
40511;SDS011;26213;52.446;20.706;2023-01-04T07:51:47;49.42;;;22.70;;
40511;SDS011;26213;52.446;20.706;2023-01-04T07:54:13;41.45;;;21.77;;
40511;SDS011;26213;52.446;20.706;2023-01-04T07:56:39;39.22;;;20.60;;
40511;SDS011;26213;52.446;20.706;2023-01-04T07:59:05;39.13;;;19.13;;
40511;SDS011;26213;52.446;20.706;2023-01-04T08:01:32;43.30;;;22.50;;
40511;SDS011;26213;52.446;20.706;2023-01-04T08:03:59;34.15;;;20.75;;
40511;SDS011;26213;52.446;20.706;2023-01-04T08:06:25;34.42;;;19.10;;
40511;SDS011;26213;52.446;20.706;2023-01-04T08:08:51;35.20;;;20.05;;
40511;SDS011;26213;52.446;20.706;2023-01-04T08:11:18;36.53;;;20.42;;
40511;SDS011;26213;52.446;20.706;2023-01-04T08:13:46;43.05;;;23.02;;
40511;SDS011;26213;52.446;20.706;2023-01-04T08:21:36;33.33;;;17.58;;
40511;SDS011;26213;52.446;20.706;2023-01-04T08:24:02;75.63;;;29.50;;
40511;SDS011;26213;52.446;20.706;2023-01-04T08:26:28;47.70;;;25.83;;
40511;SDS011;26213;52.446;20.706;2023-01-04T08:28:54;37.13;;;19.23;;
40511;SDS011;26213;52.446;20.706;2023-01-04T08:31:24;36.78;;;18.20;;
40511;SDS011;26213;52.446;20.706;2023-01-04T08:33:52;34.75;;;18.27;;
40511;SDS011;26213;52.446;20.706;2023-01-04T08:36:19;42.53;;;21.88;;
40511;SDS011;26213;52.446;20.706;2023-01-04T08:38:56;53.28;;;27.75;;
40511;SDS011;26213;52.446;20.706;2023-01-04T08:41:22;35.85;;;20.00;;
40511;SDS011;26213;52.446;20.706;2023-01-04T08:43:48;34.10;;;18.80;;
40511;SDS011;26213;52.446;20.706;2023-01-04T08:46:14;31.75;;;19.23;;
40511;SDS011;26213;52.446;20.706;2023-01-04T08:48:39;28.52;;;16.50;;
40511;SDS011;26213;52.446;20.706;2023-01-04T08:51:08;30.25;;;18.17;;
40511;SDS011;26213;52.446;20.706;2023-01-04T08:53:40;36.40;;;20.02;;
40511;SDS011;26213;52.446;20.706;2023-01-04T08:56:09;36.17;;;18.35;;
40511;SDS011;26213;52.446;20.706;2023-01-04T08:58:36;37.92;;;20.88;;
40511;SDS011;26213;52.446;20.706;2023-01-04T09:01:02;31.00;;;18.52;;
40511;SDS011;26213;52.446;20.706;2023-01-04T09:03:29;33.28;;;17.85;;
40511;SDS011;26213;52.446;20.706;2023-01-04T09:06:11;35.25;;;19.40;;
40511;SDS011;26213;52.446;20.706;2023-01-04T09:08:38;30.38;;;19.02;;
40511;SDS011;26213;52.446;20.706;2023-01-04T09:11:05;34.70;;;17.80;;
40511;SDS011;26213;52.446;20.706;2023-01-04T09:13:35;38.85;;;18.55;;
40511;SDS011;26213;52.446;20.706;2023-01-04T09:16:05;29.90;;;18.45;;
40511;SDS011;26213;52.446;20.706;2023-01-04T09:18:32;33.83;;;20.17;;
40511;SDS011;26213;52.446;20.706;2023-01-04T09:20:58;34.25;;;19.60;;
40511;SDS011;26213;52.446;20.706;2023-01-04T09:23:25;31.67;;;18.70;;
40511;SDS011;26213;52.446;20.706;2023-01-04T09:25:53;39.13;;;19.50;;
40511;SDS011;26213;52.446;20.706;2023-01-04T09:28:18;39.40;;;20.38;;
40511;SDS011;26213;52.446;20.706;2023-01-04T09:30:44;38.65;;;21.67;;
40511;SDS011;26213;52.446;20.706;2023-01-04T09:33:09;34.08;;;19.00;;
40511;SDS011;26213;52.446;20.706;2023-01-04T09:35:35;47.55;;;24.73;;
40511;SDS011;26213;52.446;20.706;2023-01-04T09:38:00;37.50;;;23.42;;
40511;SDS011;26213;52.446;20.706;2023-01-04T09:40:33;32.75;;;20.38;;
40511;SDS011;26213;52.446;20.706;2023-01-04T09:43:14;33.55;;;19.55;;
40511;SDS011;26213;52.446;20.706;2023-01-04T09:45:42;34.10;;;20.70;;
40511;SDS011;26213;52.446;20.706;2023-01-04T09:48:13;39.33;;;22.50;;
40511;SDS011;26213;52.446;20.706;2023-01-04T09:53:14;37.28;;;19.17;;
40511;SDS011;26213;52.446;20.706;2023-01-04T09:55:44;39.45;;;20.35;;
40511;SDS011;26213;52.446;20.706;2023-01-04T09:58:46;32.58;;;19.63;;
40511;SDS011;26213;52.446;20.706;2023-01-04T10:01:06;32.25;;;19.42;;
40511;SDS011;26213;52.446;20.706;2023-01-04T10:03:41;32.45;;;19.70;;
40511;SDS011;26213;52.446;20.706;2023-01-04T10:06:11;36.40;;;21.25;;
40511;SDS011;26213;52.446;20.706;2023-01-04T10:08:36;35.55;;;18.73;;
40511;SDS011;26213;52.446;20.706;2023-01-04T10:19:59;30.63;;;17.27;;
40511;SDS011;26213;52.446;20.706;2023-01-04T10:25:21;33.95;;;19.85;;
40511;SDS011;26213;52.446;20.706;2023-01-04T10:33:38;26.23;;;15.75;;
40511;SDS011;26213;52.446;20.706;2023-01-04T10:36:19;30.13;;;17.42;;
40511;SDS011;26213;52.446;20.706;2023-01-04T10:38:48;36.47;;;16.70;;
40511;SDS011;26213;52.446;20.706;2023-01-04T10:41:37;27.52;;;19.17;;
40511;SDS011;26213;52.446;20.706;2023-01-04T10:44:08;32.90;;;18.23;;
40511;SDS011;26213;52.446;20.706;2023-01-04T10:46:51;35.97;;;17.77;;
40511;SDS011;26213;52.446;20.706;2023-01-04T10:49:22;34.25;;;18.75;;
40511;SDS011;26213;52.446;20.706;2023-01-04T10:52:14;28.20;;;17.60;;
40511;SDS011;26213;52.446;20.706;2023-01-04T10:57:22;27.10;;;16.30;;
40511;SDS011;26213;52.446;20.706;2023-01-04T11:02:24;27.20;;;15.27;;
40511;SDS011;26213;52.446;20.706;2023-01-04T11:05:15;32.92;;;17.40;;
40511;SDS011;26213;52.446;20.706;2023-01-04T11:10:35;24.40;;;15.75;;
40511;SDS011;26213;52.446;20.706;2023-01-04T11:13:02;26.23;;;16.02;;
40511;SDS011;26213;52.446;20.706;2023-01-04T11:15:28;24.00;;;14.77;;
40511;SDS011;26213;52.446;20.706;2023-01-04T11:17:54;25.95;;;14.60;;
40511;SDS011;26213;52.446;20.706;2023-01-04T11:20:20;21.60;;;13.25;;
40511;SDS011;26213;52.446;20.706;2023-01-04T11:22:53;23.10;;;14.07;;
40511;SDS011;26213;52.446;20.706;2023-01-04T11:25:24;21.80;;;14.63;;
40511;SDS011;26213;52.446;20.706;2023-01-04T11:27:51;23.10;;;14.35;;
40511;SDS011;26213;52.446;20.706;2023-01-04T11:30:25;26.27;;;14.30;;
40511;SDS011;26213;52.446;20.706;2023-01-04T11:33:02;26.15;;;15.35;;
40511;SDS011;26213;52.446;20.706;2023-01-04T11:35:36;24.98;;;13.18;;
40511;SDS011;26213;52.446;20.706;2023-01-04T11:38:13;31.63;;;16.58;;
40511;SDS011;26213;52.446;20.706;2023-01-04T11:40:38;27.13;;;15.75;;
40511;SDS011;26213;52.446;20.706;2023-01-04T11:43:14;33.75;;;18.20;;
40511;SDS011;26213;52.446;20.706;2023-01-04T11:48:39;28.35;;;13.63;;
40511;SDS011;26213;52.446;20.706;2023-01-04T11:51:51;23.02;;;13.15;;
40511;SDS011;26213;52.446;20.706;2023-01-04T11:56:28;19.08;;;12.75;;
40511;SDS011;26213;52.446;20.706;2023-01-04T12:01:41;19.00;;;12.02;;
40511;SDS011;26213;52.446;20.706;2023-01-04T12:04:42;19.98;;;12.13;;
40511;SDS011;26213;52.446;20.706;2023-01-04T12:07:01;22.52;;;12.15;;
40511;SDS011;26213;52.446;20.706;2023-01-04T12:09:47;17.13;;;10.13;;
40511;SDS011;26213;52.446;20.706;2023-01-04T12:12:13;20.17;;;11.30;;
40511;SDS011;26213;52.446;20.706;2023-01-04T12:14:39;21.73;;;11.30;;
40511;SDS011;26213;52.446;20.706;2023-01-04T12:17:20;19.80;;;11.80;;
40511;SDS011;26213;52.446;20.706;2023-01-04T12:19:48;18.23;;;11.13;;
40511;SDS011;26213;52.446;20.706;2023-01-04T12:22:30;22.00;;;11.82;;
40511;SDS011;26213;52.446;20.706;2023-01-04T12:24:59;21.90;;;12.90;;
40511;SDS011;26213;52.446;20.706;2023-01-04T12:27:26;21.35;;;11.85;;
40511;SDS011;26213;52.446;20.706;2023-01-04T12:30:31;23.77;;;12.13;;
40511;SDS011;26213;52.446;20.706;2023-01-04T12:32:58;18.30;;;10.55;;
40511;SDS011;26213;52.446;20.706;2023-01-04T12:41:22;17.25;;;10.50;;
40511;SDS011;26213;52.446;20.706;2023-01-04T12:44:00;20.27;;;12.57;;
40511;SDS011;26213;52.446;20.706;2023-01-04T12:54:43;15.77;;;9.82;;
40511;SDS011;26213;52.446;20.706;2023-01-04T12:59:57;16.10;;;10.10;;
40511;SDS011;26213;52.446;20.706;2023-01-04T13:05:00;15.18;;;9.23;;
40511;SDS011;26213;52.446;20.706;2023-01-04T13:07:36;16.02;;;10.10;;
40511;SDS011;26213;52.446;20.706;2023-01-04T13:10:19;22.15;;;9.90;;
40511;SDS011;26213;52.446;20.706;2023-01-04T13:18:00;14.90;;;8.95;;
40511;SDS011;26213;52.446;20.706;2023-01-04T13:20:26;19.05;;;9.23;;
40511;SDS011;26213;52.446;20.706;2023-01-04T13:22:55;13.82;;;9.20;;
40511;SDS011;26213;52.446;20.706;2023-01-04T13:25:22;15.60;;;8.48;;
40511;SDS011;26213;52.446;20.706;2023-01-04T13:28:02;15.52;;;9.00;;
40511;SDS011;26213;52.446;20.706;2023-01-04T13:30:36;13.30;;;8.15;;
40511;SDS011;26213;52.446;20.706;2023-01-04T13:35:35;15.52;;;9.10;;
40511;SDS011;26213;52.446;20.706;2023-01-04T13:38:02;20.15;;;9.73;;
40511;SDS011;26213;52.446;20.706;2023-01-04T13:40:28;15.73;;;9.50;;
40511;SDS011;26213;52.446;20.706;2023-01-04T13:48:41;16.73;;;9.25;;
40511;SDS011;26213;52.446;20.706;2023-01-04T13:51:24;16.42;;;9.48;;
40511;SDS011;26213;52.446;20.706;2023-01-04T13:53:58;15.75;;;9.15;;
40511;SDS011;26213;52.446;20.706;2023-01-04T13:56:26;21.05;;;9.50;;
40511;SDS011;26213;52.446;20.706;2023-01-04T13:58:52;22.88;;;12.13;;
40511;SDS011;26213;52.446;20.706;2023-01-04T14:01:28;18.60;;;10.65;;
40511;SDS011;26213;52.446;20.706;2023-01-04T14:03:56;17.98;;;10.32;;
40511;SDS011;26213;52.446;20.706;2023-01-04T14:06:27;19.15;;;9.80;;
40511;SDS011;26213;52.446;20.706;2023-01-04T14:12:21;21.52;;;11.52;;
40511;SDS011;26213;52.446;20.706;2023-01-04T14:17:12;17.55;;;11.10;;
40511;SDS011;26213;52.446;20.706;2023-01-04T14:22:26;18.10;;;10.57;;
40511;SDS011;26213;52.446;20.706;2023-01-04T14:24:56;24.25;;;12.93;;
40511;SDS011;26213;52.446;20.706;2023-01-04T14:27:40;22.38;;;12.55;;
40511;SDS011;26213;52.446;20.706;2023-01-04T14:30:21;21.65;;;11.95;;
40511;SDS011;26213;52.446;20.706;2023-01-04T14:32:55;19.10;;;11.85;;
40511;SDS011;26213;52.446;20.706;2023-01-04T14:35:23;26.75;;;11.43;;
40511;SDS011;26213;52.446;20.706;2023-01-04T14:37:51;21.58;;;12.02;;
40511;SDS011;26213;52.446;20.706;2023-01-04T14:40:27;20.10;;;11.70;;
40511;SDS011;26213;52.446;20.706;2023-01-04T14:42:55;22.02;;;13.15;;
40511;SDS011;26213;52.446;20.706;2023-01-04T14:45:21;22.77;;;11.68;;
40511;SDS011;26213;52.446;20.706;2023-01-04T14:47:47;19.33;;;11.38;;
40511;SDS011;26213;52.446;20.706;2023-01-04T14:50:13;21.65;;;11.60;;
40511;SDS011;26213;52.446;20.706;2023-01-04T14:52:39;25.35;;;13.30;;
40511;SDS011;26213;52.446;20.706;2023-01-04T14:55:05;23.67;;;12.05;;
40511;SDS011;26213;52.446;20.706;2023-01-04T14:57:31;20.70;;;13.38;;
40511;SDS011;26213;52.446;20.706;2023-01-04T14:59:59;21.98;;;13.57;;
40511;SDS011;26213;52.446;20.706;2023-01-04T15:02:25;34.60;;;15.48;;
40511;SDS011;26213;52.446;20.706;2023-01-04T15:04:53;31.95;;;14.50;;
40511;SDS011;26213;52.446;20.706;2023-01-04T15:07:51;24.98;;;14.70;;
40511;SDS011;26213;52.446;20.706;2023-01-04T15:10:28;47.25;;;19.38;;
40511;SDS011;26213;52.446;20.706;2023-01-04T15:12:54;29.65;;;15.60;;
40511;SDS011;26213;52.446;20.706;2023-01-04T15:15:23;52.75;;;23.17;;
40511;SDS011;26213;52.446;20.706;2023-01-04T15:17:48;27.63;;;13.45;;
40511;SDS011;26213;52.446;20.706;2023-01-04T15:20:14;49.72;;;21.60;;
40511;SDS011;26213;52.446;20.706;2023-01-04T15:22:39;30.02;;;15.30;;
40511;SDS011;26213;52.446;20.706;2023-01-04T15:25:05;30.92;;;16.17;;
40511;SDS011;26213;52.446;20.706;2023-01-04T15:27:32;29.20;;;14.73;;
40511;SDS011;26213;52.446;20.706;2023-01-04T15:29:58;25.15;;;14.35;;
40511;SDS011;26213;52.446;20.706;2023-01-04T15:32:23;23.90;;;13.55;;
40511;SDS011;26213;52.446;20.706;2023-01-04T15:34:49;28.02;;;16.65;;
40511;SDS011;26213;52.446;20.706;2023-01-04T15:37:15;26.90;;;15.05;;
40511;SDS011;26213;52.446;20.706;2023-01-04T15:39:41;35.03;;;16.38;;
40511;SDS011;26213;52.446;20.706;2023-01-04T15:42:10;26.70;;;14.75;;
40511;SDS011;26213;52.446;20.706;2023-01-04T15:44:55;41.97;;;20.10;;
40511;SDS011;26213;52.446;20.706;2023-01-04T15:47:20;28.45;;;15.43;;
40511;SDS011;26213;52.446;20.706;2023-01-04T15:49:46;23.20;;;12.52;;
40511;SDS011;26213;52.446;20.706;2023-01-04T15:52:12;28.95;;;16.25;;
40511;SDS011;26213;52.446;20.706;2023-01-04T15:54:37;34.10;;;18.38;;
40511;SDS011;26213;52.446;20.706;2023-01-04T15:57:03;32.13;;;17.90;;
40511;SDS011;26213;52.446;20.706;2023-01-04T15:59:29;30.02;;;18.02;;
40511;SDS011;26213;52.446;20.706;2023-01-04T16:01:54;25.00;;;14.98;;
40511;SDS011;26213;52.446;20.706;2023-01-04T16:04:20;33.00;;;21.08;;
40511;SDS011;26213;52.446;20.706;2023-01-04T16:06:45;27.63;;;15.20;;
40511;SDS011;26213;52.446;20.706;2023-01-04T16:09:11;24.73;;;15.25;;
40511;SDS011;26213;52.446;20.706;2023-01-04T16:11:37;30.38;;;17.55;;
40511;SDS011;26213;52.446;20.706;2023-01-04T16:14:22;21.80;;;13.45;;
40511;SDS011;26213;52.446;20.706;2023-01-04T16:16:48;25.83;;;13.90;;
40511;SDS011;26213;52.446;20.706;2023-01-04T16:19:13;30.58;;;17.42;;
40511;SDS011;26213;52.446;20.706;2023-01-04T16:21:39;30.23;;;15.80;;
40511;SDS011;26213;52.446;20.706;2023-01-04T16:24:05;45.58;;;25.30;;
40511;SDS011;26213;52.446;20.706;2023-01-04T16:26:31;28.77;;;16.33;;
40511;SDS011;26213;52.446;20.706;2023-01-04T16:28:56;45.92;;;21.50;;